sensor_id;sensor_type;location;lat;lon;timestamp;pressure;altitude;pressure_sealevel;temperature;humidity
78685;BME280;68002;52.310;6.990;2023-03-04T00:00:38;102131.34;;;5.55;67.45
78685;BME280;68002;52.310;6.990;2023-03-04T00:03:03;102136.66;;;5.55;68.22
78685;BME280;68002;52.310;6.990;2023-03-04T00:05:30;102137.25;;;5.62;68.40
78685;BME280;68002;52.310;6.990;2023-03-04T00:07:55;102143.38;;;5.62;68.38
78685;BME280;68002;52.310;6.990;2023-03-04T00:10:20;102132.06;;;5.59;68.33
78685;BME280;68002;52.310;6.990;2023-03-04T00:12:46;102131.34;;;5.55;68.24
78685;BME280;68002;52.310;6.990;2023-03-04T00:15:11;102149.47;;;5.64;68.18
78685;BME280;68002;52.310;6.990;2023-03-04T00:17:36;102128.16;;;5.49;68.50
78685;BME280;68002;52.310;6.990;2023-03-04T00:20:01;102156.28;;;5.70;68.98
78685;BME280;68002;52.310;6.990;2023-03-04T00:22:27;102136.56;;;5.57;68.90
78685;BME280;68002;52.310;6.990;2023-03-04T00:24:52;102128.06;;;5.50;68.64
78685;BME280;68002;52.310;6.990;2023-03-04T00:27:17;102128.88;;;5.52;68.68
78685;BME280;68002;52.310;6.990;2023-03-04T00:29:42;102142.84;;;5.56;68.95
78685;BME280;68002;52.310;6.990;2023-03-04T00:32:08;102137.75;;;5.51;68.58
78685;BME280;68002;52.310;6.990;2023-03-04T00:34:33;102145.28;;;5.60;69.11
78685;BME280;68002;52.310;6.990;2023-03-04T00:36:58;102126.28;;;5.51;68.89
78685;BME280;68002;52.310;6.990;2023-03-04T00:39:23;102129.84;;;5.50;69.13
78685;BME280;68002;52.310;6.990;2023-03-04T00:41:48;102124.44;;;5.53;68.66
78685;BME280;68002;52.310;6.990;2023-03-04T00:44:14;102121.69;;;5.54;68.94
78685;BME280;68002;52.310;6.990;2023-03-04T00:46:39;102125.13;;;5.56;69.13
78685;BME280;68002;52.310;6.990;2023-03-04T00:49:04;102092.25;;;5.42;68.66
78685;BME280;68002;52.310;6.990;2023-03-04T00:51:29;102110.50;;;5.48;69.00
78685;BME280;68002;52.310;6.990;2023-03-04T00:53:54;102138.25;;;5.59;68.47
78685;BME280;68002;52.310;6.990;2023-03-04T00:56:20;102133.72;;;5.61;69.17
78685;BME280;68002;52.310;6.990;2023-03-04T00:58:45;102128.50;;;5.60;69.00
78685;BME280;68002;52.310;6.990;2023-03-04T01:01:10;102120.13;;;5.50;69.17
78685;BME280;68002;52.310;6.990;2023-03-04T01:03:35;102132.94;;;5.59;69.24
78685;BME280;68002;52.310;6.990;2023-03-04T01:06:01;102142.75;;;5.57;69.62
78685;BME280;68002;52.310;6.990;2023-03-04T01:08:26;102132.75;;;5.62;69.46
78685;BME280;68002;52.310;6.990;2023-03-04T01:10:51;102073.56;;;5.26;68.88
78685;BME280;68002;52.310;6.990;2023-03-04T01:13:16;102127.69;;;5.58;68.92
78685;BME280;68002;52.310;6.990;2023-03-04T01:15:42;102137.38;;;5.59;68.71
78685;BME280;68002;52.310;6.990;2023-03-04T01:18:07;102109.09;;;5.41;69.14
78685;BME280;68002;52.310;6.990;2023-03-04T01:20:33;102128.25;;;5.47;68.64
78685;BME280;68002;52.310;6.990;2023-03-04T01:22:58;102131.34;;;5.55;68.98
78685;BME280;68002;52.310;6.990;2023-03-04T01:25:23;102116.13;;;5.42;69.13
78685;BME280;68002;52.310;6.990;2023-03-04T01:27:48;102132.31;;;5.54;68.59
78685;BME280;68002;52.310;6.990;2023-03-04T01:30:14;102128.88;;;5.52;69.45
78685;BME280;68002;52.310;6.990;2023-03-04T01:32:39;102120.28;;;5.47;69.26
78685;BME280;68002;52.310;6.990;2023-03-04T01:35:04;102137.69;;;5.53;69.32
78685;BME280;68002;52.310;6.990;2023-03-04T01:37:30;102104.66;;;5.41;68.02
78685;BME280;68002;52.310;6.990;2023-03-04T01:39:55;102126.84;;;5.57;68.63
78685;BME280;68002;52.310;6.990;2023-03-04T01:42:22;102112.31;;;5.47;68.86
78685;BME280;68002;52.310;6.990;2023-03-04T01:44:48;102106.84;;;5.50;69.11
78685;BME280;68002;52.310;6.990;2023-03-04T01:47:15;102118.47;;;5.48;69.32
78685;BME280;68002;52.310;6.990;2023-03-04T01:49:40;102103.06;;;5.37;68.90
78685;BME280;68002;52.310;6.990;2023-03-04T01:52:10;102119.16;;;5.51;68.81
78685;BME280;68002;52.310;6.990;2023-03-04T01:54:36;102080.34;;;5.32;69.53
78685;BME280;68002;52.310;6.990;2023-03-04T01:57:01;102100.03;;;5.45;69.64
78685;BME280;68002;52.310;6.990;2023-03-04T01:59:30;102095.53;;;5.47;69.74
78685;BME280;68002;52.310;6.990;2023-03-04T02:01:58;102085.28;;;5.39;69.60
78685;BME280;68002;52.310;6.990;2023-03-04T02:04:26;102083.19;;;5.46;69.71
78685;BME280;68002;52.310;6.990;2023-03-04T02:06:52;102089.28;;;5.48;69.03
78685;BME280;68002;52.310;6.990;2023-03-04T02:09:19;102084.22;;;5.43;68.92
78685;BME280;68002;52.310;6.990;2023-03-04T02:11:45;102085.00;;;5.45;69.06
78685;BME280;68002;52.310;6.990;2023-03-04T02:14:11;102085.69;;;5.49;69.24
78685;BME280;68002;52.310;6.990;2023-03-04T02:16:37;102052.97;;;5.31;68.84
78685;BME280;68002;52.310;6.990;2023-03-04T02:19:06;102067.66;;;5.38;67.90
78685;BME280;68002;52.310;6.990;2023-03-04T02:21:33;102068.66;;;5.36;68.05
78685;BME280;68002;52.310;6.990;2023-03-04T02:24:04;102094.84;;;5.60;67.68
78685;BME280;68002;52.310;6.990;2023-03-04T02:26:31;102092.56;;;5.53;68.09
78685;BME280;68002;52.310;6.990;2023-03-04T02:28:58;102068.47;;;5.40;67.81
78685;BME280;68002;52.310;6.990;2023-03-04T02:33:51;102059.38;;;5.44;67.52
78685;BME280;68002;52.310;6.990;2023-03-04T02:36:17;102069.53;;;5.53;67.31
78685;BME280;68002;52.310;6.990;2023-03-04T02:38:42;102071.41;;;5.51;67.25
78685;BME280;68002;52.310;6.990;2023-03-04T02:41:11;102030.25;;;5.26;67.88
78685;BME280;68002;52.310;6.990;2023-03-04T02:43:37;102069.88;;;5.47;68.07
78685;BME280;68002;52.310;6.990;2023-03-04T02:46:03;102066.72;;;5.39;67.99
78685;BME280;68002;52.310;6.990;2023-03-04T02:48:28;102053.53;;;5.38;68.11
78685;BME280;68002;52.310;6.990;2023-03-04T02:50:54;102062.03;;;5.44;68.05
78685;BME280;68002;52.310;6.990;2023-03-04T02:53:20;102049.22;;;5.35;68.05
78685;BME280;68002;52.310;6.990;2023-03-04T02:55:45;102052.38;;;5.43;67.98
78685;BME280;68002;52.310;6.990;2023-03-04T02:58:11;102054.25;;;5.41;68.54
78685;BME280;68002;52.310;6.990;2023-03-04T03:00:37;102055.19;;;5.40;68.39
78685;BME280;68002;52.310;6.990;2023-03-04T03:03:03;102050.72;;;5.41;68.26
78685;BME280;68002;52.310;6.990;2023-03-04T03:05:32;102043.78;;;5.38;68.51
78685;BME280;68002;52.310;6.990;2023-03-04T03:07:58;102057.50;;;5.46;68.50
78685;BME280;68002;52.310;6.990;2023-03-04T03:10:23;102028.88;;;5.36;68.48
78685;BME280;68002;52.310;6.990;2023-03-04T03:12:49;102004.97;;;5.19;68.33
78685;BME280;68002;52.310;6.990;2023-03-04T03:15:15;102050.50;;;5.45;68.90
78685;BME280;68002;52.310;6.990;2023-03-04T03:17:40;101990.56;;;5.07;68.89
78685;BME280;68002;52.310;6.990;2023-03-04T03:20:06;102037.38;;;5.42;68.71
78685;BME280;68002;52.310;6.990;2023-03-04T03:22:32;102035.84;;;5.38;68.76
78685;BME280;68002;52.310;6.990;2023-03-04T03:24:57;102040.03;;;5.42;68.71
78685;BME280;68002;52.310;6.990;2023-03-04T03:27:22;102043.53;;;5.43;68.88
78685;BME280;68002;52.310;6.990;2023-03-04T03:29:48;102027.16;;;5.35;68.99
78685;BME280;68002;52.310;6.990;2023-03-04T03:32:13;102041.69;;;5.45;69.03
78685;BME280;68002;52.310;6.990;2023-03-04T03:34:38;102019.25;;;5.33;68.66
78685;BME280;68002;52.310;6.990;2023-03-04T03:37:03;102025.84;;;5.43;69.27
78685;BME280;68002;52.310;6.990;2023-03-04T03:39:29;102014.97;;;5.48;68.83
78685;BME280;68002;52.310;6.990;2023-03-04T03:41:54;102018.78;;;5.42;68.74
78685;BME280;68002;52.310;6.990;2023-03-04T03:44:19;101988.94;;;5.22;68.99
78685;BME280;68002;52.310;6.990;2023-03-04T03:46:44;102002.44;;;5.34;68.26
78685;BME280;68002;52.310;6.990;2023-03-04T03:49:10;102027.25;;;5.50;68.36
78685;BME280;68002;52.310;6.990;2023-03-04T03:51:35;102029.81;;;5.52;68.30
78685;BME280;68002;52.310;6.990;2023-03-04T03:54:00;102020.53;;;5.43;68.69
78685;BME280;68002;52.310;6.990;2023-03-04T03:56:25;102004.03;;;5.37;68.36
78685;BME280;68002;52.310;6.990;2023-03-04T03:58:50;102017.88;;;5.43;69.22
78685;BME280;68002;52.310;6.990;2023-03-04T04:01:16;102002.44;;;5.34;68.71
78685;BME280;68002;52.310;6.990;2023-03-04T04:03:41;102010.09;;;5.40;68.72
78685;BME280;68002;52.310;6.990;2023-03-04T04:06:06;102015.22;;;5.43;68.58
78685;BME280;68002;52.310;6.990;2023-03-04T04:08:31;102008.50;;;5.36;69.13
78685;BME280;68002;52.310;6.990;2023-03-04T04:10:57;101999.06;;;5.31;68.57
78685;BME280;68002;52.310;6.990;2023-03-04T04:13:22;101977.28;;;5.24;68.80
78685;BME280;68002;52.310;6.990;2023-03-04T04:15:47;101983.75;;;5.19;69.36
78685;BME280;68002;52.310;6.990;2023-03-04T04:18:12;102017.25;;;5.38;69.49
78685;BME280;68002;52.310;6.990;2023-03-04T04:20:37;101999.44;;;5.23;69.55
78685;BME280;68002;52.310;6.990;2023-03-04T04:23:03;102002.34;;;5.36;69.50
78685;BME280;68002;52.310;6.990;2023-03-04T04:25:28;102013.81;;;5.36;70.25
78685;BME280;68002;52.310;6.990;2023-03-04T04:27:53;102028.78;;;5.37;70.14
78685;BME280;68002;52.310;6.990;2023-03-04T04:30:19;102001.94;;;5.26;69.72
78685;BME280;68002;52.310;6.990;2023-03-04T04:32:44;102003.50;;;5.30;69.79
78685;BME280;68002;52.310;6.990;2023-03-04T04:35:09;102032.75;;;5.46;70.69
78685;BME280;68002;52.310;6.990;2023-03-04T04:37:35;101992.72;;;5.33;70.68
78685;BME280;68002;52.310;6.990;2023-03-04T04:40:00;102008.44;;;5.38;70.59
78685;BME280;68002;52.310;6.990;2023-03-04T04:42:25;102034.59;;;5.45;71.37
78685;BME280;68002;52.310;6.990;2023-03-04T04:44:51;102031.44;;;5.37;71.36
78685;BME280;68002;52.310;6.990;2023-03-04T04:47:16;102021.13;;;5.31;70.95
78685;BME280;68002;52.310;6.990;2023-03-04T04:49:41;102019.13;;;5.36;71.24
78685;BME280;68002;52.310;6.990;2023-03-04T04:52:06;101968.94;;;4.97;71.28
78685;BME280;68002;52.310;6.990;2023-03-04T04:54:31;102028.47;;;5.26;71.36
78685;BME280;68002;52.310;6.990;2023-03-04T04:56:57;102002.69;;;5.11;71.85
78685;BME280;68002;52.310;6.990;2023-03-04T04:59:22;102017.06;;;5.24;71.57
78685;BME280;68002;52.310;6.990;2023-03-04T05:01:47;101996.63;;;5.09;71.69
78685;BME280;68002;52.310;6.990;2023-03-04T05:04:13;102014.28;;;5.27;71.24
78685;BME280;68002;52.310;6.990;2023-03-04T05:06:38;101992.75;;;5.16;71.13
78685;BME280;68002;52.310;6.990;2023-03-04T05:09:03;101998.97;;;5.15;72.05
78685;BME280;68002;52.310;6.990;2023-03-04T05:11:30;102010.94;;;5.24;71.61
78685;BME280;68002;52.310;6.990;2023-03-04T05:13:55;102001.47;;;5.18;72.04
78685;BME280;68002;52.310;6.990;2023-03-04T05:16:20;101992.66;;;5.18;71.54
78685;BME280;68002;52.310;6.990;2023-03-04T05:18:46;101982.22;;;5.15;71.30
78685;BME280;68002;52.310;6.990;2023-03-04T05:21:11;102016.06;;;5.27;72.22
78685;BME280;68002;52.310;6.990;2023-03-04T05:23:39;102019.25;;;5.33;72.21
78685;BME280;68002;52.310;6.990;2023-03-04T05:26:06;102011.47;;;5.30;72.25
78685;BME280;68002;52.310;6.990;2023-03-04T05:28:32;101999.38;;;5.25;72.69
78685;BME280;68002;52.310;6.990;2023-03-04T05:30:57;101980.78;;;5.07;72.81
78685;BME280;68002;52.310;6.990;2023-03-04T05:33:23;102000.91;;;5.11;73.09
78685;BME280;68002;52.310;6.990;2023-03-04T05:35:48;101991.09;;;5.13;72.94
78685;BME280;68002;52.310;6.990;2023-03-04T05:38:16;102024.31;;;5.21;73.14
78685;BME280;68002;52.310;6.990;2023-03-04T05:40:42;102020.69;;;5.23;73.31
78685;BME280;68002;52.310;6.990;2023-03-04T05:43:08;102019.09;;;5.19;73.32
78685;BME280;68002;52.310;6.990;2023-03-04T05:45:33;102008.09;;;5.09;73.60
78685;BME280;68002;52.310;6.990;2023-03-04T05:47:59;102003.44;;;5.15;73.47
78685;BME280;68002;52.310;6.990;2023-03-04T05:50:25;102012.94;;;5.19;73.32
78685;BME280;68002;52.310;6.990;2023-03-04T05:52:51;101992.97;;;5.11;73.40
78685;BME280;68002;52.310;6.990;2023-03-04T05:55:17;102009.28;;;5.21;73.67
78685;BME280;68002;52.310;6.990;2023-03-04T05:57:43;102000.28;;;5.06;73.45
78685;BME280;68002;52.310;6.990;2023-03-04T06:00:09;102014.88;;;5.15;73.84
78685;BME280;68002;52.310;6.990;2023-03-04T06:02:36;102011.31;;;5.16;73.89
78685;BME280;68002;52.310;6.990;2023-03-04T06:05:02;101964.91;;;4.89;74.06
78685;BME280;68002;52.310;6.990;2023-03-04T06:07:27;101992.72;;;4.99;74.22
78685;BME280;68002;52.310;6.990;2023-03-04T06:09:53;101988.34;;;4.98;74.16
78685;BME280;68002;52.310;6.990;2023-03-04T06:12:18;102013.31;;;5.11;74.42
78685;BME280;68002;52.310;6.990;2023-03-04T06:14:43;102007.25;;;5.09;74.86
78685;BME280;68002;52.310;6.990;2023-03-04T06:17:08;102012.22;;;5.15;74.16
78685;BME280;68002;52.310;6.990;2023-03-04T06:19:33;101984.84;;;4.97;74.94
78685;BME280;68002;52.310;6.990;2023-03-04T06:21:59;102003.84;;;5.05;75.74
78685;BME280;68002;52.310;6.990;2023-03-04T06:24:24;101987.88;;;4.90;76.05
78685;BME280;68002;52.310;6.990;2023-03-04T06:26:49;102027.00;;;5.02;76.63
78685;BME280;68002;52.310;6.990;2023-03-04T06:29:14;102023.91;;;4.94;77.19
78685;BME280;68002;52.310;6.990;2023-03-04T06:31:40;102022.09;;;4.94;76.85
78685;BME280;68002;52.310;6.990;2023-03-04T06:34:05;102001.28;;;4.87;77.18
78685;BME280;68002;52.310;6.990;2023-03-04T06:36:30;102001.19;;;4.88;77.41
78685;BME280;68002;52.310;6.990;2023-03-04T06:38:55;102013.66;;;4.86;77.77
78685;BME280;68002;52.310;6.990;2023-03-04T06:41:20;102021.47;;;4.89;78.35
78685;BME280;68002;52.310;6.990;2023-03-04T06:43:46;102015.38;;;4.87;78.74
78685;BME280;68002;52.310;6.990;2023-03-04T06:46:11;101996.63;;;4.73;79.44
78685;BME280;68002;52.310;6.990;2023-03-04T06:48:36;102017.22;;;4.85;79.13
78685;BME280;68002;52.310;6.990;2023-03-04T06:51:07;102023.13;;;4.92;79.33
78685;BME280;68002;52.310;6.990;2023-03-04T06:53:32;102018.09;;;4.86;79.61
78685;BME280;68002;52.310;6.990;2023-03-04T06:55:57;102024.97;;;4.90;80.20
78685;BME280;68002;52.310;6.990;2023-03-04T06:58:23;102006.63;;;4.85;79.96
78685;BME280;68002;52.310;6.990;2023-03-04T07:00:48;102028.13;;;4.98;80.15
78685;BME280;68002;52.310;6.990;2023-03-04T07:03:13;102035.84;;;5.02;79.96
78685;BME280;68002;52.310;6.990;2023-03-04T07:05:38;102028.13;;;4.98;80.27
78685;BME280;68002;52.310;6.990;2023-03-04T07:08:04;102020.81;;;4.84;80.95
78685;BME280;68002;52.310;6.990;2023-03-04T07:10:29;102034.44;;;4.95;81.08
78685;BME280;68002;52.310;6.990;2023-03-04T07:12:54;102030.97;;;4.93;81.36
78685;BME280;68002;52.310;6.990;2023-03-04T07:15:19;102038.84;;;4.95;82.43
78685;BME280;68002;52.310;6.990;2023-03-04T07:17:45;102004.41;;;4.76;82.05
78685;BME280;68002;52.310;6.990;2023-03-04T07:20:10;101992.81;;;4.79;82.04
78685;BME280;68002;52.310;6.990;2023-03-04T07:22:36;102035.91;;;5.01;82.58
78685;BME280;68002;52.310;6.990;2023-03-04T07:25:01;102017.88;;;4.90;82.13
78685;BME280;68002;52.310;6.990;2023-03-04T07:27:26;102027.34;;;4.96;82.10
78685;BME280;68002;52.310;6.990;2023-03-04T07:29:51;102027.00;;;5.02;81.58
78685;BME280;68002;52.310;6.990;2023-03-04T07:32:17;102025.41;;;4.99;82.36
78685;BME280;68002;52.310;6.990;2023-03-04T07:34:42;102018.94;;;5.05;82.10
78685;BME280;68002;52.310;6.990;2023-03-04T07:37:07;101999.88;;;4.97;81.77
78685;BME280;68002;52.310;6.990;2023-03-04T07:39:32;102041.81;;;5.25;82.08
78685;BME280;68002;52.310;6.990;2023-03-04T07:41:57;102011.53;;;5.11;81.38
78685;BME280;68002;52.310;6.990;2023-03-04T07:44:23;102019.34;;;5.15;81.57
78685;BME280;68002;52.310;6.990;2023-03-04T07:46:49;102035.56;;;5.26;81.50
78685;BME280;68002;52.310;6.990;2023-03-04T07:49:14;102026.09;;;5.20;81.66
78685;BME280;68002;52.310;6.990;2023-03-04T07:51:39;102022.53;;;5.21;82.22
78685;BME280;68002;52.310;6.990;2023-03-04T07:54:05;102047.66;;;5.31;82.52
78685;BME280;68002;52.310;6.990;2023-03-04T07:56:32;102034.63;;;5.27;83.00
78685;BME280;68002;52.310;6.990;2023-03-04T07:58:58;102032.84;;;5.27;82.83
78685;BME280;68002;52.310;6.990;2023-03-04T08:01:26;102050.09;;;5.36;83.50
78685;BME280;68002;52.310;6.990;2023-03-04T08:03:52;102036.63;;;5.40;83.04
78685;BME280;68002;52.310;6.990;2023-03-04T08:06:18;102016.00;;;5.28;83.08
78685;BME280;68002;52.310;6.990;2023-03-04T08:08:45;102017.00;;;5.43;81.93
78685;BME280;68002;52.310;6.990;2023-03-04T08:11:17;102039.25;;;5.57;82.21
78685;BME280;68002;52.310;6.990;2023-03-04T08:13:42;102036.81;;;5.70;81.61
78685;BME280;68002;52.310;6.990;2023-03-04T08:16:11;102035.50;;;5.78;81.67
78685;BME280;68002;52.310;6.990;2023-03-04T08:18:36;102010.84;;;5.59;81.62
78685;BME280;68002;52.310;6.990;2023-03-04T08:21:07;101998.19;;;5.64;81.79
78685;BME280;68002;52.310;6.990;2023-03-04T08:23:33;102039.59;;;5.85;81.74
78685;BME280;68002;52.310;6.990;2023-03-04T08:25:58;102016.06;;;5.78;81.58
78685;BME280;68002;52.310;6.990;2023-03-04T08:28:23;102042.00;;;5.90;82.44
78685;BME280;68002;52.310;6.990;2023-03-04T08:30:52;102031.81;;;5.81;82.48
78685;BME280;68002;52.310;6.990;2023-03-04T08:33:18;102021.09;;;5.84;83.03
78685;BME280;68002;52.310;6.990;2023-03-04T08:35:43;102016.63;;;5.84;83.28
78685;BME280;68002;52.310;6.990;2023-03-04T08:38:09;102003.88;;;5.74;83.50
78685;BME280;68002;52.310;6.990;2023-03-04T08:40:34;102020.28;;;5.82;84.61
78685;BME280;68002;52.310;6.990;2023-03-04T08:42:59;102031.53;;;5.87;84.61
78685;BME280;68002;52.310;6.990;2023-03-04T08:45:24;102008.28;;;5.75;83.53
78685;BME280;68002;52.310;6.990;2023-03-04T08:47:50;102047.69;;;5.99;83.29
78685;BME280;68002;52.310;6.990;2023-03-04T08:50:15;102010.94;;;5.75;83.16
78685;BME280;68002;52.310;6.990;2023-03-04T08:52:40;102032.50;;;5.86;83.14
78685;BME280;68002;52.310;6.990;2023-03-04T08:55:06;102012.09;;;5.86;83.17
78685;BME280;68002;52.310;6.990;2023-03-04T08:57:31;102050.56;;;6.12;83.08
78685;BME280;68002;52.310;6.990;2023-03-04T08:59:56;102031.53;;;6.04;82.45
78685;BME280;68002;52.310;6.990;2023-03-04T09:02:22;102010.38;;;5.85;82.90
78685;BME280;68002;52.310;6.990;2023-03-04T09:04:47;102040.34;;;6.04;82.14
78685;BME280;68002;52.310;6.990;2023-03-04T09:07:12;102018.16;;;6.05;83.09
78685;BME280;68002;52.310;6.990;2023-03-04T09:09:37;102026.25;;;6.20;81.51
78685;BME280;68002;52.310;6.990;2023-03-04T09:12:03;102027.63;;;6.27;81.94
78685;BME280;68002;52.310;6.990;2023-03-04T09:14:28;102038.03;;;6.47;81.82
78685;BME280;68002;52.310;6.990;2023-03-04T09:16:53;102027.50;;;6.45;80.87
78685;BME280;68002;52.310;6.990;2023-03-04T09:19:18;102030.50;;;6.55;80.53
78685;BME280;68002;52.310;6.990;2023-03-04T09:21:44;102026.84;;;6.57;80.25
78685;BME280;68002;52.310;6.990;2023-03-04T09:24:09;102032.66;;;6.64;79.47
78685;BME280;68002;52.310;6.990;2023-03-04T09:26:34;102032.16;;;6.57;80.91
78685;BME280;68002;52.310;6.990;2023-03-04T09:29:01;102016.44;;;6.53;81.20
78685;BME280;68002;52.310;6.990;2023-03-04T09:31:27;102037.28;;;6.76;81.88
78685;BME280;68002;52.310;6.990;2023-03-04T09:33:55;102014.91;;;6.80;81.58
78685;BME280;68002;52.310;6.990;2023-03-04T09:36:21;102040.63;;;6.95;80.24
78685;BME280;68002;52.310;6.990;2023-03-04T09:38:47;102026.59;;;6.77;80.74
78685;BME280;68002;52.310;6.990;2023-03-04T09:44:12;102032.31;;;6.70;81.48
78685;BME280;68002;52.310;6.990;2023-03-04T09:46:40;102029.31;;;6.60;81.82
78685;BME280;68002;52.310;6.990;2023-03-04T09:49:05;102026.38;;;6.49;83.04
78685;BME280;68002;52.310;6.990;2023-03-04T09:51:46;102010.94;;;6.56;83.16
78685;BME280;68002;52.310;6.990;2023-03-04T09:57:22;102043.22;;;6.81;83.09
78685;BME280;68002;52.310;6.990;2023-03-04T10:02:58;102021.47;;;7.20;79.68
78685;BME280;68002;52.310;6.990;2023-03-04T10:05:27;102022.88;;;7.84;79.12
78685;BME280;68002;52.310;6.990;2023-03-04T10:08:01;102015.41;;;8.05;76.20
78685;BME280;68002;52.310;6.990;2023-03-04T10:10:35;102003.88;;;8.04;76.48
78685;BME280;68002;52.310;6.990;2023-03-04T10:13:02;102016.34;;;8.18;74.50
78685;BME280;68002;52.310;6.990;2023-03-04T10:15:48;101993.88;;;8.08;72.65
78685;BME280;68002;52.310;6.990;2023-03-04T10:18:23;101999.63;;;8.02;70.57
78685;BME280;68002;52.310;6.990;2023-03-04T10:23:38;101995.72;;;8.36;69.01
78685;BME280;68002;52.310;6.990;2023-03-04T10:26:13;102000.38;;;8.18;69.27
78685;BME280;68002;52.310;6.990;2023-03-04T10:28:39;102019.41;;;8.12;72.08
78685;BME280;68002;52.310;6.990;2023-03-04T10:33:35;102019.28;;;7.85;73.23
78685;BME280;68002;52.310;6.990;2023-03-04T10:38:45;102030.13;;;7.53;74.84
78685;BME280;68002;52.310;6.990;2023-03-04T10:41:25;102041.25;;;7.45;75.51
78685;BME280;68002;52.310;6.990;2023-03-04T10:46:22;102006.25;;;7.22;76.43
78685;BME280;68002;52.310;6.990;2023-03-04T10:48:48;102028.25;;;7.25;77.11
78685;BME280;68002;52.310;6.990;2023-03-04T10:51:21;102015.28;;;7.19;77.25
78685;BME280;68002;52.310;6.990;2023-03-04T10:54:04;101994.44;;;7.11;77.11
78685;BME280;68002;52.310;6.990;2023-03-04T10:56:37;101999.69;;;7.13;76.89
78685;BME280;68002;52.310;6.990;2023-03-04T11:01:53;101965.19;;;7.41;76.51
78685;BME280;68002;52.310;6.990;2023-03-04T11:04:19;101998.16;;;7.82;76.13
78685;BME280;68002;52.310;6.990;2023-03-04T11:06:47;101997.63;;;8.05;75.75
78685;BME280;68002;52.310;6.990;2023-03-04T11:09:24;101995.81;;;8.20;74.19
78685;BME280;68002;52.310;6.990;2023-03-04T11:11:51;101992.16;;;8.21;74.17
78685;BME280;68002;52.310;6.990;2023-03-04T11:14:49;102010.16;;;8.18;73.93
78685;BME280;68002;52.310;6.990;2023-03-04T11:19:47;102011.38;;;7.84;74.90
78685;BME280;68002;52.310;6.990;2023-03-04T11:22:14;102000.91;;;7.67;75.25
78685;BME280;68002;52.310;6.990;2023-03-04T11:24:42;102002.84;;;7.49;75.22
78685;BME280;68002;52.310;6.990;2023-03-04T11:27:20;102007.22;;;7.50;75.05
78685;BME280;68002;52.310;6.990;2023-03-04T11:29:51;102016.75;;;7.54;74.78
78685;BME280;68002;52.310;6.990;2023-03-04T11:32:25;101985.47;;;7.28;72.25
78685;BME280;68002;52.310;6.990;2023-03-04T11:35:07;102019.00;;;7.46;73.78
78685;BME280;68002;52.310;6.990;2023-03-04T11:37:43;102008.94;;;7.51;69.76
78685;BME280;68002;52.310;6.990;2023-03-04T11:40:11;101986.34;;;7.29;70.31
78685;BME280;68002;52.310;6.990;2023-03-04T11:42:44;101974.84;;;7.28;68.45
78685;BME280;68002;52.310;6.990;2023-03-04T11:45:16;101993.84;;;7.36;68.57
78685;BME280;68002;52.310;6.990;2023-03-04T11:48:16;101990.94;;;7.41;69.78
78685;BME280;68002;52.310;6.990;2023-03-04T11:50:47;101972.97;;;7.44;67.10
78685;BME280;68002;52.310;6.990;2023-03-04T11:53:25;101957.66;;;7.34;66.81
78685;BME280;68002;52.310;6.990;2023-03-04T11:56:02;101982.50;;;7.48;67.01
78685;BME280;68002;52.310;6.990;2023-03-04T11:58:46;101983.16;;;7.52;67.37
78685;BME280;68002;52.310;6.990;2023-03-04T12:04:26;101984.63;;;7.71;67.88
78685;BME280;68002;52.310;6.990;2023-03-04T12:15:19;101972.28;;;7.98;66.87
78685;BME280;68002;52.310;6.990;2023-03-04T12:17:51;101969.41;;;7.87;67.35
78685;BME280;68002;52.310;6.990;2023-03-04T12:22:56;101931.94;;;7.62;67.27
78685;BME280;68002;52.310;6.990;2023-03-04T12:25:34;101936.78;;;7.70;67.05
78685;BME280;68002;52.310;6.990;2023-03-04T12:41:47;101948.88;;;8.03;63.82
78685;BME280;68002;52.310;6.990;2023-03-04T12:44:18;101944.88;;;8.10;63.71
78685;BME280;68002;52.310;6.990;2023-03-04T12:55:09;101936.34;;;8.87;60.34
78685;BME280;68002;52.310;6.990;2023-03-04T12:57:35;101934.00;;;8.82;61.37
78685;BME280;68002;52.310;6.990;2023-03-04T13:00:19;101928.44;;;8.85;60.93
78685;BME280;68002;52.310;6.990;2023-03-04T13:05:43;101906.97;;;8.74;61.03
78685;BME280;68002;52.310;6.990;2023-03-04T13:11:07;101914.75;;;8.77;59.53
78685;BME280;68002;52.310;6.990;2023-03-04T13:14:07;101918.22;;;8.65;60.76
78685;BME280;68002;52.310;6.990;2023-03-04T13:16:48;101918.94;;;8.55;60.91
78685;BME280;68002;52.310;6.990;2023-03-04T13:24:55;101911.53;;;8.72;61.52
78685;BME280;68002;52.310;6.990;2023-03-04T13:27:43;101908.38;;;8.80;61.60
78685;BME280;68002;52.310;6.990;2023-03-04T13:43:55;101921.06;;;8.22;62.83
78685;BME280;68002;52.310;6.990;2023-03-04T13:51:22;101892.44;;;8.11;62.26
78685;BME280;68002;52.310;6.990;2023-03-04T14:01:47;101891.50;;;7.98;61.70
78685;BME280;68002;52.310;6.990;2023-03-04T14:04:20;101892.84;;;8.05;61.41
78685;BME280;68002;52.310;6.990;2023-03-04T14:06:47;101858.22;;;7.77;60.21
78685;BME280;68002;52.310;6.990;2023-03-04T14:09:23;101885.25;;;7.85;60.50
78685;BME280;68002;52.310;6.990;2023-03-04T14:11:50;101877.16;;;7.86;60.24
78685;BME280;68002;52.310;6.990;2023-03-04T14:14:22;101877.59;;;7.93;59.33
78685;BME280;68002;52.310;6.990;2023-03-04T14:16:51;101888.16;;;8.08;59.57
78685;BME280;68002;52.310;6.990;2023-03-04T14:19:23;101888.81;;;8.12;60.56
78685;BME280;68002;52.310;6.990;2023-03-04T14:21:49;101864.47;;;8.04;59.41
78685;BME280;68002;52.310;6.990;2023-03-04T14:24:19;101877.66;;;8.20;59.15
78685;BME280;68002;52.310;6.990;2023-03-04T14:26:45;101854.50;;;8.07;59.75
78685;BME280;68002;52.310;6.990;2023-03-04T14:29:23;101881.78;;;8.25;58.23
78685;BME280;68002;52.310;6.990;2023-03-04T14:31:49;101860.00;;;8.04;57.88
78685;BME280;68002;52.310;6.990;2023-03-04T14:36:49;101878.34;;;8.23;58.88
78685;BME280;68002;52.310;6.990;2023-03-04T14:39:16;101852.09;;;8.03;58.73
78685;BME280;68002;52.310;6.990;2023-03-04T14:41:44;101854.50;;;8.07;58.48
78685;BME280;68002;52.310;6.990;2023-03-04T14:44:31;101834.31;;;7.89;58.85